KILG/ILG METAR and TAF weather

Enter ICAO airport designator
Station Type Date Time Source
KILG METAR 2022/06/28 09:51 UTC NOAA

KILG 280951Z AUTO 34004KT 10SM CLR 17/09 A3013 RMK AO2 SLP203 T01720094 $


Station Type Date Time Source
KILG Decoded METAR 2022/06/28 09:51 UTC NOAA

WILMINGTON NEW CASTLE CO, DE, United States (KILG) 39-40N 075-36W 28M
Jun 28, 2022 - 05:51 AM EDT / 2022.06.28 0951 UTC
Wind: from the NNW (340 degrees) at 5 MPH (4 KT):0
Visibility: 10 mile(s):0
Sky conditions: clear
Temperature: 63.0 F (17.2 C)
Dew Point: 48.9 F (9.4 C)
Relative Humidity: 60%
Pressure (altimeter): 30.13 in. Hg (1020 hPa)
ob: KILG 280951Z AUTO 34004KT 10SM CLR 17/09 A3013 RMK AO2 SLP203 T01720094
cycle: 10

Station Type Date Time Source
KILG TAF 2022/06/28 06:22 UTC NOAA

TAF KILG 280520Z 2806/2906 33008KT P6SM SKC
FM281300 35010KT P6SM SKC
FM281700 31008KT P6SM SKC
FM282300 VRB03KT P6SM SKC

Example: see airport list